Time;durP1;ratioP1;P1;durP2;ratioP2;P2;SDS_P1;SDS_P2;PMS_P1;PMS_P2;Temp;Humidity;BMP_temperature;BMP_pressure;BME280_temperature;BME280_humidity;BME280_pressure;Samples;Min_cycle;Max_cycle;Signal;HPM_P1;HPM_P2
2022/11/02 00:02:15;;;;;;;12.68;2.28;;;13.90;99.90;;;;;;5072016;28;20481;-68
2022/11/02 00:04:41;;;;;;;10.55;1.70;;;13.90;99.90;;;;;;5070726;28;20029;-68
2022/11/02 00:07:07;;;;;;;7.00;1.98;;;13.70;99.90;;;;;;5072125;28;20025;-68
2022/11/02 00:09:32;;;;;;;9.02;2.10;;;13.70;99.90;;;;;;5072076;28;20023;-68
2022/11/02 00:11:58;;;;;;;10.05;2.17;;;13.70;99.90;;;;;;5072141;28;20094;-68
2022/11/02 00:14:24;;;;;;;8.43;1.77;;;13.70;99.90;;;;;;5072023;28;20039;-68
2022/11/02 00:16:50;;;;;;;10.25;1.75;;;13.70;99.90;;;;;;5053768;28;20044;-68
2022/11/02 00:19:16;;;;;;;9.05;2.10;;;13.60;99.90;;;;;;5072001;28;20060;-69
2022/11/02 00:21:42;;;;;;;9.60;2.30;;;13.60;99.90;;;;;;5073764;28;20040;-69
2022/11/02 00:24:09;;;;;;;6.40;1.27;;;13.50;99.90;;;;;;5075846;28;20124;-68
2022/11/02 00:26:35;;;;;;;9.38;2.08;;;13.50;99.90;;;;;;5075442;28;20016;-69
2022/11/02 00:29:04;;;;;;;4.72;1.45;;;13.50;99.90;;;;;;5075624;28;20480;-69
2022/11/02 00:31:30;;;;;;;10.13;2.03;;;13.50;99.90;;;;;;5075258;28;20029;-69
2022/11/02 00:33:56;;;;;;;8.18;2.10;;;13.50;99.90;;;;;;5075549;28;20376;-69
2022/11/02 00:36:23;;;;;;;9.77;1.80;;;13.50;99.90;;;;;;5075114;28;20048;-69
2022/11/02 00:38:49;;;;;;;12.05;2.22;;;13.40;99.90;;;;;;5074122;28;20021;-68
2022/11/02 00:41:19;;;;;;;10.70;1.65;;;13.40;99.90;;;;;;5073953;28;20037;-69
2022/11/02 00:43:44;;;;;;;10.95;2.30;;;13.40;99.90;;;;;;5074336;28;20431;-68
2022/11/02 00:46:10;;;;;;;10.63;2.13;;;13.40;99.90;;;;;;5074796;28;20032;-69
2022/11/02 00:48:36;;;;;;;9.40;1.90;;;13.40;99.90;;;;;;5075171;28;20469;-68
2022/11/02 00:51:02;;;;;;;10.77;2.47;;;13.30;99.90;;;;;;5073837;28;20021;-68
2022/11/02 00:53:29;;;;;;;8.55;1.50;;;13.30;99.90;;;;;;5073839;28;20047;-68
2022/11/02 00:55:54;;;;;;;7.25;1.73;;;13.30;99.90;;;;;;5075125;28;20028;-68
2022/11/02 00:58:20;;;;;;;4.20;1.48;;;13.30;99.90;;;;;;5075241;28;20067;-68
2022/11/02 01:00:47;;;;;;;11.68;2.85;;;13.40;99.90;;;;;;5073115;28;20090;-68
2022/11/02 01:03:13;;;;;;;8.05;1.77;;;13.40;99.90;;;;;;5075150;28;20028;-68
2022/11/02 01:05:39;;;;;;;17.98;2.33;;;13.40;99.90;;;;;;5073611;28;20429;-68
2022/11/02 01:08:05;;;;;;;12.90;1.83;;;13.40;99.90;;;;;;5075365;28;20025;-68
2022/11/02 01:10:30;;;;;;;9.93;2.00;;;13.30;99.90;;;;;;5074820;28;20055;-68
2022/11/02 01:12:56;;;;;;;14.55;2.70;;;13.20;99.90;;;;;;5074610;28;20024;-68
2022/11/02 01:15:22;;;;;;;10.77;2.17;;;13.30;99.90;;;;;;5074507;28;20377;-68
2022/11/02 01:17:48;;;;;;;11.05;1.77;;;13.30;99.90;;;;;;5075186;28;20028;-68
2022/11/02 01:20:13;;;;;;;9.00;2.25;;;13.30;99.90;;;;;;5074710;28;20052;-68
2022/11/02 01:22:39;;;;;;;10.20;2.03;;;13.30;99.90;;;;;;5073154;28;20106;-69
2022/11/02 01:25:06;;;;;;;6.38;1.30;;;13.40;99.90;;;;;;5074496;28;20082;-68
2022/11/02 01:27:32;;;;;;;8.60;1.90;;;13.20;99.90;;;;;;5074429;28;20100;-68
2022/11/02 01:29:58;;;;;;;12.20;1.90;;;13.20;99.90;;;;;;5074213;28;20112;-68
2022/11/02 01:32:23;;;;;;;10.93;2.17;;;13.20;99.90;;;;;;5073402;28;20060;-68
2022/11/02 01:34:49;;;;;;;12.98;2.85;;;13.30;99.90;;;;;;5074126;28;20033;-68
2022/11/02 01:37:15;;;;;;;9.55;1.80;;;13.20;99.90;;;;;;5072888;28;20078;-68
2022/11/02 01:39:40;;;;;;;10.27;2.13;;;13.10;99.90;;;;;;5074391;28;20038;-68
2022/11/02 01:42:21;;;;;;;9.80;2.40;;;13.10;99.90;;;;;;5072518;28;20016;-68
2022/11/02 01:44:47;;;;;;;15.13;2.20;;;13.10;99.90;;;;;;5074247;28;20036;-68
2022/11/02 01:47:20;;;;;;;8.98;1.63;;;13.00;99.90;;;;;;5072687;28;20023;-68
2022/11/02 01:49:49;;;;;;;10.40;2.50;;;13.10;99.90;;;;;;5061654;28;20095;-68
2022/11/02 01:52:20;;;;;;;4.88;1.52;;;13.10;99.90;;;;;;5072961;28;20028;-68
2022/11/02 01:54:56;;;;;;;16.33;2.15;;;13.10;99.90;;;;;;5074175;28;20032;-70
2022/11/02 01:57:24;;;;;;;16.75;2.65;;;13.00;99.90;;;;;;5073825;28;20021;-69
2022/11/02 01:59:58;;;;;;;12.70;2.40;;;12.90;99.90;;;;;;5074054;28;20043;-68
2022/11/02 02:02:25;;;;;;;15.85;4.15;;;13.00;99.90;;;;;;5073669;28;20025;-69
2022/11/02 02:05:13;;;;;;;10.18;2.05;;;13.00;99.90;;;;;;5072434;28;20077;-68
2022/11/02 02:07:39;;;;;;;13.07;2.67;;;13.00;99.90;;;;;;5073631;28;20053;-68
2022/11/02 02:10:07;;;;;;;13.43;2.45;;;12.90;99.90;;;;;;5072390;28;20020;-69
2022/11/02 02:12:35;;;;;;;16.30;3.05;;;13.00;99.90;;;;;;5073555;28;20025;-68
2022/11/02 02:15:01;;;;;;;11.73;2.30;;;13.00;99.90;;;;;;5039001;28;20541;-68
2022/11/02 02:17:40;;;;;;;17.25;2.78;;;13.00;99.90;;;;;;5071963;28;20031;-68
2022/11/02 02:20:50;;;;;;;15.48;2.85;;;12.90;99.90;;;;;;5073531;28;20493;-68
2022/11/02 02:23:53;;;;;;;15.70;2.65;;;12.90;99.90;;;;;;5072008;28;20025;-69
2022/11/02 02:26:33;;;;;;;13.25;2.35;;;13.00;99.90;;;;;;5064305;28;20048;-68
2022/11/02 02:29:12;;;;;;;17.40;3.53;;;12.90;99.90;;;;;;5071773;28;20028;-68
2022/11/02 02:32:01;;;;;;;18.27;3.58;;;12.90;99.90;;;;;;5073251;28;20510;-68
2022/11/02 02:34:36;;;;;;;12.15;2.53;;;12.90;99.90;;;;;;5072038;28;20031;-69
2022/11/02 02:37:24;;;;;;;16.85;3.10;;;12.90;99.90;;;;;;5071751;28;20382;-69
2022/11/02 02:39:52;;;;;;;19.05;2.63;;;12.80;99.90;;;;;;5072871;28;20062;-68
2022/11/02 02:42:22;;;;;;;19.27;2.70;;;12.90;99.90;;;;;;5071635;28;20060;-69
2022/11/02 02:45:00;;;;;;;11.68;2.22;;;12.80;99.90;;;;;;5071866;28;20550;-69
2022/11/02 02:47:30;;;;;;;21.90;3.50;;;12.90;99.90;;;;;;5071780;28;20026;-68
2022/11/02 02:50:12;;;;;;;19.80;2.47;;;12.90;99.90;;;;;;5071547;28;20480;-68
2022/11/02 02:52:40;;;;;;;24.53;4.07;;;13.00;99.90;;;;;;5065374;28;20116;-68
2022/11/02 02:55:13;;;;;;;15.15;2.88;;;13.00;99.90;;;;;;5066249;28;20016;-69
2022/11/02 02:57:40;;;;;;;10.32;2.78;;;13.00;99.90;;;;;;5054683;28;20028;-68
2022/11/02 03:00:16;;;;;;;16.20;3.83;;;12.90;99.90;;;;;;5072876;28;20041;-68
2022/11/02 03:02:59;;;;;;;17.70;2.70;;;12.90;99.90;;;;;;5071341;28;20028;-68
2022/11/02 03:05:36;;;;;;;21.23;3.22;;;12.90;99.90;;;;;;5073266;28;20041;-68
2022/11/02 03:08:11;;;;;;;14.82;3.13;;;12.80;99.90;;;;;;5071408;28;20472;-68
2022/11/02 03:10:45;;;;;;;25.00;3.92;;;12.80;99.90;;;;;;5071552;28;20039;-68
2022/11/02 03:13:35;;;;;;;17.15;3.30;;;12.90;99.90;;;;;;5070938;28;20464;-68
2022/11/02 03:16:22;;;;;;;16.02;2.95;;;13.00;99.90;;;;;;5054540;28;20396;-68
2022/11/02 03:18:57;;;;;;;21.75;4.07;;;12.80;99.90;;;;;;5072872;28;20017;-68
2022/11/02 03:21:33;;;;;;;25.25;3.17;;;12.90;99.90;;;;;;5071146;28;20047;-68
2022/11/02 03:24:12;;;;;;;16.27;4.03;;;12.80;99.90;;;;;;5071262;28;20059;-68
2022/11/02 03:27:09;;;;;;;16.08;2.70;;;12.90;99.90;;;;;;5071041;28;20107;-68
2022/11/02 03:29:54;;;;;;;12.35;2.95;;;12.90;99.90;;;;;;5068074;28;20055;-69
2022/11/02 03:32:40;;;;;;;12.32;2.50;;;12.80;99.90;;;;;;5071251;28;20146;-68
2022/11/02 03:35:18;;;;;;;22.92;4.03;;;12.70;99.90;;;;;;5072404;28;20035;-68
2022/11/02 03:38:09;;;;;;;15.98;2.25;;;12.70;99.90;;;;;;5071260;28;20221;-68
2022/11/02 03:40:41;;;;;;;19.02;5.10;;;12.70;99.90;;;;;;5070966;28;20028;-68
2022/11/02 03:43:07;;;;;;;16.08;3.45;;;12.80;99.90;;;;;;5054612;28;20021;-68
2022/11/02 03:45:46;;;;;;;29.63;4.13;;;12.70;99.90;;;;;;5070989;28;20021;-68
2022/11/02 03:48:15;;;;;;;16.65;2.75;;;12.70;99.90;;;;;;5072329;28;20029;-68
2022/11/02 03:50:47;;;;;;;25.20;3.88;;;12.70;99.90;;;;;;5070376;28;20027;-69
2022/11/02 03:53:25;;;;;;;24.98;3.75;;;12.60;99.90;;;;;;5064464;28;20064;-68
2022/11/02 03:55:57;;;;;;;14.40;3.08;;;12.70;99.90;;;;;;5070978;28;20073;-68
2022/11/02 03:58:23;;;;;;;20.52;3.38;;;12.50;99.90;;;;;;5065885;28;20131;-68
2022/11/02 04:00:57;;;;;;;16.05;3.22;;;12.40;99.90;;;;;;5071271;28;20115;-68
2022/11/02 04:03:23;;;;;;;16.98;2.88;;;12.40;99.90;;;;;;5074841;28;20043;-68
2022/11/02 04:05:50;;;;;;;18.60;2.55;;;12.40;99.90;;;;;;5074795;28;20029;-68
2022/11/02 04:08:34;;;;;;;11.88;2.42;;;12.40;99.90;;;;;;5074755;28;20028;-68
2022/11/02 04:16:40;;;;;;;18.70;2.78;;;12.40;99.90;;;;;;5074576;28;20040;-68
2022/11/02 04:19:27;;;;;;;17.48;3.13;;;12.30;99.90;;;;;;5073997;28;20113;-68
2022/11/02 04:27:31;;;;;;;22.20;3.80;;;12.20;99.90;;;;;;5074145;28;20024;-68
2022/11/02 04:29:57;;;;;;;13.13;2.63;;;12.20;99.90;;;;;;5074423;28;20060;-68
2022/11/02 04:35:14;;;;;;;13.57;2.78;;;12.10;99.90;;;;;;5074026;28;20115;-69
2022/11/02 04:40:28;;;;;;;15.43;3.20;;;12.10;99.90;;;;;;5074095;28;20102;-68
2022/11/02 04:42:55;;;;;;;22.85;3.67;;;12.10;99.90;;;;;;5074192;28;20120;-68
2022/11/02 04:45:21;;;;;;;20.52;3.15;;;12.00;99.90;;;;;;5073800;28;20025;-68
2022/11/02 04:47:47;;;;;;;18.77;3.83;;;12.00;99.90;;;;;;5074005;28;20031;-69
2022/11/02 04:50:13;;;;;;;11.15;2.58;;;12.00;99.90;;;;;;5074008;28;20025;-68
2022/11/02 04:52:40;;;;;;;26.73;3.72;;;12.00;99.90;;;;;;5073682;28;20072;-69
2022/11/02 04:55:07;;;;;;;15.80;3.80;;;12.00;99.90;;;;;;5073936;28;20051;-68
2022/11/02 04:57:33;;;;;;;19.15;2.88;;;12.00;99.90;;;;;;5073810;28;20051;-68
2022/11/02 05:00:00;;;;;;;21.70;3.55;;;11.90;99.90;;;;;;5073689;28;20068;-68
2022/11/02 05:02:27;;;;;;;31.10;5.03;;;11.80;99.90;;;;;;5073682;28;20052;-68
2022/11/02 05:04:53;;;;;;;18.10;2.72;;;11.90;99.90;;;;;;5073926;28;20439;-68
2022/11/02 05:07:20;;;;;;;22.83;3.42;;;11.80;99.90;;;;;;5073241;28;20024;-68
2022/11/02 05:09:46;;;;;;;15.48;3.08;;;11.80;99.90;;;;;;5073701;28;20020;-69
2022/11/02 05:12:13;;;;;;;28.42;3.00;;;11.80;99.90;;;;;;5073493;28;20035;-68
2022/11/02 05:14:39;;;;;;;24.65;3.30;;;11.80;99.90;;;;;;5073597;28;20020;-68
2022/11/02 05:17:06;;;;;;;22.67;4.30;;;11.80;99.90;;;;;;5073024;28;20480;-68
2022/11/02 05:19:33;;;;;;;15.00;3.10;;;11.70;99.90;;;;;;5073731;28;20385;-68
2022/11/02 05:22:01;;;;;;;15.10;2.83;;;11.80;99.90;;;;;;5056473;28;20040;-68
2022/11/02 05:24:28;;;;;;;21.85;3.95;;;11.70;99.90;;;;;;5073480;28;20025;-68
2022/11/02 05:26:54;;;;;;;13.57;2.30;;;11.70;99.90;;;;;;5073124;28;20028;-69
2022/11/02 05:29:22;;;;;;;22.65;3.30;;;11.70;99.90;;;;;;5073353;28;20023;-68
2022/11/02 05:31:49;;;;;;;12.77;2.78;;;11.60;99.90;;;;;;5073209;28;20021;-68
2022/11/02 05:34:15;;;;;;;16.63;3.03;;;11.60;99.90;;;;;;5073135;28;20464;-69
2022/11/02 05:36:41;;;;;;;24.40;4.38;;;11.70;99.90;;;;;;5072737;28;20024;-69
2022/11/02 05:39:07;;;;;;;16.42;3.33;;;11.70;99.90;;;;;;5072851;28;20111;-69
2022/11/02 05:41:33;;;;;;;15.27;3.13;;;11.70;99.90;;;;;;5074401;28;20108;-68
2022/11/02 05:43:59;;;;;;;21.23;2.97;;;11.70;99.90;;;;;;5073013;28;20086;-68
2022/11/02 05:46:27;;;;;;;15.40;2.80;;;11.60;99.90;;;;;;5072479;28;20039;-68
2022/11/02 05:48:52;;;;;;;18.27;3.00;;;11.50;99.90;;;;;;5074360;28;20127;-68
2022/11/02 05:51:18;;;;;;;13.82;3.25;;;11.50;99.90;;;;;;5072268;28;20032;-68
2022/11/02 05:53:44;;;;;;;25.30;3.45;;;11.60;99.90;;;;;;5074057;28;20120;-69
2022/11/02 05:56:10;;;;;;;15.75;3.20;;;11.60;99.90;;;;;;5072541;28;20095;-68
2022/11/02 05:58:36;;;;;;;22.38;3.42;;;11.50;99.90;;;;;;5073823;28;20369;-68
2022/11/02 06:01:04;;;;;;;20.35;2.85;;;11.50;99.90;;;;;;5073944;28;20101;-68
2022/11/02 06:03:31;;;;;;;17.63;3.10;;;11.60;99.90;;;;;;5073652;28;20013;-68
2022/11/02 06:06:01;;;;;;;15.95;3.08;;;11.50;99.90;;;;;;5073494;28;20056;-68
2022/11/02 06:08:31;;;;;;;8.60;2.50;;;11.50;99.90;;;;;;5073604;28;20027;-68
2022/11/02 06:10:56;;;;;;;21.00;2.72;;;11.40;99.90;;;;;;5073715;28;20071;-68
2022/11/02 06:13:22;;;;;;;18.90;2.80;;;11.40;99.90;;;;;;5073379;28;20028;-69
2022/11/02 06:15:48;;;;;;;19.08;3.67;;;11.40;99.90;;;;;;5073505;28;20024;-69
2022/11/02 06:18:13;;;;;;;24.00;3.50;;;11.40;99.90;;;;;;5073138;28;20051;-69
2022/11/02 06:20:39;;;;;;;16.42;3.47;;;11.30;99.90;;;;;;5072712;28;20024;-68
2022/11/02 06:23:05;;;;;;;15.18;3.17;;;11.30;99.90;;;;;;5072176;28;20472;-68
2022/11/02 06:25:31;;;;;;;18.85;3.58;;;11.20;99.90;;;;;;5073066;28;20028;-68
2022/11/02 06:27:56;;;;;;;20.92;4.18;;;11.20;99.90;;;;;;5073520;28;20035;-69
2022/11/02 06:30:26;;;;;;;22.02;4.53;;;11.30;99.90;;;;;;5071977;28;20102;-68
2022/11/02 06:32:53;;;;;;;23.67;4.45;;;11.10;99.90;;;;;;5072670;28;20506;-68
2022/11/02 06:35:20;;;;;;;22.20;4.88;;;11.10;99.90;;;;;;5070890;28;20507;-68
2022/11/02 06:37:47;;;;;;;20.10;3.30;;;11.20;99.90;;;;;;5072994;28;20055;-68
2022/11/02 06:40:13;;;;;;;22.30;3.90;;;11.10;99.90;;;;;;5072223;28;20120;-68
2022/11/02 06:42:39;;;;;;;14.95;3.47;;;11.10;99.90;;;;;;5073099;28;20028;-69
2022/11/02 06:45:07;;;;;;;19.48;3.53;;;11.10;99.90;;;;;;5073352;28;20040;-69
2022/11/02 06:47:35;;;;;;;23.20;3.42;;;11.20;99.90;;;;;;5072751;28;20032;-70
2022/11/02 06:50:01;;;;;;;16.48;2.88;;;11.00;99.90;;;;;;5073096;28;20032;-69
2022/11/02 06:52:27;;;;;;;19.10;3.50;;;11.00;99.90;;;;;;5072752;28;20028;-68
2022/11/02 06:54:53;;;;;;;18.33;2.90;;;11.00;99.90;;;;;;5072014;28;20415;-69
2022/11/02 06:57:19;;;;;;;20.65;3.38;;;11.10;99.90;;;;;;5073082;28;20028;-69
2022/11/02 06:59:45;;;;;;;19.30;3.78;;;11.00;99.90;;;;;;5072535;28;20116;-69
2022/11/02 07:02:11;;;;;;;18.35;3.00;;;10.90;99.90;;;;;;5064693;28;20477;-68
2022/11/02 07:04:37;;;;;;;27.33;3.58;;;10.90;99.90;;;;;;5044066;28;20016;-69
2022/11/02 07:07:03;;;;;;;19.42;3.70;;;11.00;99.90;;;;;;5044878;28;20051;-69
2022/11/02 07:09:28;;;;;;;14.75;2.75;;;11.10;99.90;;;;;;5058017;28;20362;-69
2022/11/02 07:11:54;;;;;;;27.60;3.83;;;11.00;99.90;;;;;;5050613;28;20448;-69
2022/11/02 07:14:20;;;;;;;20.20;3.13;;;11.00;99.90;;;;;;5055709;28;20024;-69
2022/11/02 07:16:46;;;;;;;22.65;4.55;;;11.00;99.90;;;;;;5053057;28;20119;-68
2022/11/02 07:19:12;;;;;;;14.95;3.42;;;11.00;99.90;;;;;;5060122;28;20029;-68
2022/11/02 07:21:37;;;;;;;24.90;3.90;;;11.10;99.90;;;;;;5061598;28;20063;-68
2022/11/02 07:24:03;;;;;;;8.80;2.60;;;11.10;99.90;;;;;;5051765;28;20450;-68
2022/11/02 07:26:30;;;;;;;23.08;4.25;;;11.10;99.90;;;;;;5054586;28;20025;-69
2022/11/02 07:28:56;;;;;;;21.92;4.10;;;11.10;99.90;;;;;;5052265;28;20056;-68
2022/11/02 07:31:21;;;;;;;26.77;4.20;;;11.20;99.90;;;;;;5061861;28;20056;-68
2022/11/02 07:33:47;;;;;;;16.42;3.65;;;11.20;99.90;;;;;;5057832;28;20024;-68
2022/11/02 07:36:13;;;;;;;20.80;3.78;;;11.30;99.90;;;;;;5056267;28;20037;-68
2022/11/02 07:38:38;;;;;;;29.15;5.18;;;11.40;99.90;;;;;;5058065;28;20053;-68
2022/11/02 07:41:04;;;;;;;28.00;4.55;;;11.30;99.90;;;;;;5065108;28;20493;-68
2022/11/02 07:43:30;;;;;;;20.63;4.25;;;11.40;99.90;;;;;;5064887;28;20025;-68
2022/11/02 07:46:02;;;;;;;23.73;3.88;;;11.40;99.90;;;;;;5057653;28;20401;-68
2022/11/02 07:48:27;;;;;;;20.27;4.55;;;11.40;99.90;;;;;;5058229;28;20052;-68
2022/11/02 07:50:55;;;;;;;28.48;4.35;;;11.40;99.90;;;;;;5056804;28;20499;-68
2022/11/02 07:53:21;;;;;;;23.95;4.22;;;11.30;99.90;;;;;;5053019;28;20064;-69
2022/11/02 07:55:47;;;;;;;16.10;2.63;;;11.40;99.90;;;;;;5064174;28;20063;-69
2022/11/02 07:58:13;;;;;;;23.48;4.50;;;11.40;99.90;;;;;;5056612;28;20041;-69
2022/11/02 08:00:40;;;;;;;20.73;3.58;;;11.50;99.90;;;;;;5066899;28;20040;-69
2022/11/02 08:03:07;;;;;;;24.08;3.47;;;11.50;99.90;;;;;;5061728;28;20469;-69
2022/11/02 08:05:35;;;;;;;34.22;4.80;;;11.60;99.90;;;;;;5074843;28;20062;-69
2022/11/02 08:08:03;;;;;;;23.98;4.28;;;11.60;99.90;;;;;;5075349;28;20029;-69
2022/11/02 08:10:30;;;;;;;24.55;4.18;;;11.70;99.90;;;;;;5075080;28;20054;-68
2022/11/02 08:12:56;;;;;;;27.95;5.10;;;11.60;99.90;;;;;;5075284;28;20031;-68
2022/11/02 08:15:22;;;;;;;17.25;4.25;;;11.60;99.90;;;;;;5074574;28;20024;-68
2022/11/02 08:18:25;;;;;;;22.55;4.05;;;11.70;99.90;;;;;;5075740;28;20036;-68
2022/11/02 08:20:51;;;;;;;26.45;4.38;;;11.80;99.90;;;;;;5063212;28;20140;-68
2022/11/02 08:23:18;;;;;;;26.25;4.30;;;11.80;99.90;;;;;;5066342;28;20029;-68
2022/11/02 08:25:46;;;;;;;35.10;6.38;;;11.80;99.90;;;;;;5073849;28;20078;-68
2022/11/02 08:28:18;;;;;;;22.65;4.47;;;11.90;99.90;;;;;;5074257;28;20021;-68
2022/11/02 08:30:44;;;;;;;;;;;12.00;99.90;;;;;;5075455;28;20030;-68
2022/11/02 08:33:12;;;;;;;18.63;4.07;;;12.00;99.90;;;;;;5073274;28;19905;-68
2022/11/02 08:35:38;;;;;;;30.00;4.50;;;12.10;99.90;;;;;;5075120;28;20039;-68
2022/11/02 08:38:05;;;;;;;28.67;4.15;;;12.00;99.90;;;;;;5066938;28;20043;-69
2022/11/02 08:40:31;;;;;;;25.38;5.25;;;12.00;99.90;;;;;;5070249;28;20064;-69
2022/11/02 08:43:05;;;;;;;32.67;4.82;;;12.10;99.90;;;;;;5074984;28;20504;-70
2022/11/02 08:45:32;;;;;;;15.55;4.15;;;12.20;99.90;;;;;;5074796;28;20032;-70
2022/11/02 08:47:58;;;;;;;30.80;5.68;;;12.20;99.90;;;;;;5066186;28;20040;-69
2022/11/02 08:50:24;;;;;;;26.60;4.88;;;12.40;99.90;;;;;;5052911;28;20029;-69
2022/11/02 08:52:50;;;;;;;29.52;5.35;;;12.30;99.90;;;;;;5057179;28;20028;-69
2022/11/02 08:55:16;;;;;;;27.50;6.28;;;12.40;99.90;;;;;;5070127;28;20031;-69
2022/11/02 08:57:52;;;;;;;24.80;3.97;;;12.40;99.90;;;;;;5066327;28;20028;-69
2022/11/02 09:00:20;;;;;;;30.27;5.55;;;12.40;99.90;;;;;;5066069;28;20230;-70
2022/11/02 09:03:03;;;;;;;28.08;5.05;;;12.70;99.90;;;;;;5059162;28;20029;-69
2022/11/02 09:05:31;;;;;;;31.60;5.53;;;12.70;99.90;;;;;;5051574;28;20036;-71
2022/11/02 09:08:03;;;;;;;22.42;4.65;;;12.80;99.90;;;;;;5059982;28;20025;-69
2022/11/02 09:10:32;;;;;;;23.02;3.78;;;13.00;99.90;;;;;;5051352;28;20036;-69
2022/11/02 09:12:59;;;;;;;24.63;4.00;;;12.90;99.90;;;;;;5059095;28;20372;-69
2022/11/02 09:15:25;;;;;;;22.38;5.22;;;13.10;99.90;;;;;;5059707;28;20036;-69
2022/11/02 09:17:51;;;;;;;24.00;4.55;;;13.30;99.90;;;;;;5052351;28;20021;-69
2022/11/02 09:20:18;;;;;;;24.42;5.32;;;13.50;99.90;;;;;;5057227;28;20044;-69
2022/11/02 09:22:45;;;;;;;18.88;3.83;;;13.60;99.90;;;;;;5059019;28;20052;-69
2022/11/02 09:25:12;;;;;;;26.23;4.68;;;13.50;99.90;;;;;;5064840;28;20079;-69
2022/11/02 09:27:38;;;;;;;27.25;5.85;;;13.60;99.90;;;;;;5057145;28;20416;-69
2022/11/02 09:30:04;;;;;;;23.08;4.40;;;13.80;99.90;;;;;;5055195;28;20033;-68
2022/11/02 09:32:32;;;;;;;26.65;5.22;;;13.80;99.90;;;;;;5058161;28;20064;-68
2022/11/02 09:35:03;;;;;;;19.20;3.83;;;13.70;99.90;;;;;;5058858;28;20067;-69
2022/11/02 09:37:29;;;;;;;26.95;4.93;;;13.70;99.90;;;;;;5043140;28;20519;-68
2022/11/02 09:39:55;;;;;;;23.02;3.92;;;13.90;99.90;;;;;;5038033;28;20034;-68
2022/11/02 09:42:44;;;;;;;25.05;4.40;;;13.90;99.90;;;;;;5045629;28;20037;-69
2022/11/02 09:45:16;;;;;;;17.40;3.78;;;13.90;99.90;;;;;;5045588;28;20076;-69
2022/11/02 09:47:52;;;;;;;;;;;13.80;99.90;;;;;;5055958;28;20033;-69
2022/11/02 09:50:29;;;;;;;25.52;3.80;;;14.00;99.90;;;;;;5063405;28;20415;-69
2022/11/02 09:53:02;;;;;;;23.40;4.65;;;14.20;99.90;;;;;;5060182;28;20097;-69
2022/11/02 09:55:33;;;;;;;24.55;4.30;;;14.50;99.90;;;;;;5051099;28;20226;-69
2022/11/02 09:58:06;;;;;;;18.38;3.42;;;14.60;99.90;;;;;;5054451;28;20485;-68
2022/11/02 10:00:37;;;;;;;27.60;5.22;;;14.00;99.90;;;;;;5057769;28;20040;-68
2022/11/02 10:03:19;;;;;;;21.35;4.32;;;14.30;99.90;;;;;;5052413;28;20048;-69
2022/11/02 10:05:57;;;;;;;27.42;5.07;;;14.90;99.90;;;;;;5059821;28;20021;-69
2022/11/02 10:08:32;;;;;;;20.67;4.70;;;15.10;99.90;;;;;;5053873;28;20074;-69
2022/11/02 10:11:15;;;;;;;17.90;2.75;;;15.20;99.90;;;;;;5055445;28;20029;-68
2022/11/02 10:14:00;;;;;;;19.13;4.15;;;14.60;99.90;;;;;;5056449;28;20029;-69
2022/11/02 10:17:13;;;;;;;23.83;4.53;;;14.50;99.90;;;;;;5061575;28;20056;-69
2022/11/02 10:19:40;;;;;;;23.52;4.90;;;15.10;99.90;;;;;;5025428;28;20075;-68
2022/11/02 10:22:11;;;;;;;23.17;3.95;;;15.20;99.90;;;;;;5020596;28;20149;-68
2022/11/02 10:24:49;;;;;;;20.08;3.80;;;15.00;99.90;;;;;;5041845;28;20102;-70
2022/11/02 10:27:27;;;;;;;23.98;3.80;;;14.80;99.90;;;;;;5056045;28;20025;-69
2022/11/02 10:30:13;;;;;;;19.10;3.80;;;15.10;99.90;;;;;;5062076;28;20682;-69
2022/11/02 10:32:41;;;;;;;22.15;3.47;;;15.30;99.90;;;;;;5050376;28;20032;-69
2022/11/02 10:35:38;;;;;;;16.23;3.50;;;15.60;99.90;;;;;;5057966;28;20033;-69
2022/11/02 10:38:31;;;;;;;22.73;3.55;;;15.80;99.90;;;;;;5041149;28;20044;-69
2022/11/02 10:41:34;;;;;;;22.58;4.13;;;15.90;99.90;;;;;;5034303;28;20044;-69
2022/11/02 10:44:19;;;;;;;19.60;3.63;;;16.00;99.90;;;;;;5063511;28;20052;-69
2022/11/02 10:47:11;;;;;;;23.05;4.05;;;16.60;99.90;;;;;;5051910;28;20037;-69
2022/11/02 10:49:55;;;;;;;23.40;5.03;;;16.10;99.90;;;;;;5048189;28;20033;-69
2022/11/02 10:52:21;;;;;;;19.27;4.45;;;16.20;99.90;;;;;;5051047;28;20060;-69
2022/11/02 10:54:50;;;;;;;19.02;4.10;;;16.90;99.90;;;;;;5050817;28;20052;-69
2022/11/02 10:57:22;;;;;;;22.70;4.13;;;16.70;99.90;;;;;;5052827;28;20033;-69
2022/11/02 11:00:25;;;;;;;16.85;3.95;;;16.50;99.90;;;;;;5053192;28;20119;-69
2022/11/02 11:03:03;;;;;;;24.27;3.65;;;16.40;99.90;;;;;;5054931;28;20040;-69
2022/11/02 11:05:30;;;;;;;26.38;5.30;;;15.40;99.90;;;;;;5072661;28;20029;-69
2022/11/02 11:07:56;;;;;;;24.98;4.40;;;15.10;99.90;;;;;;5072066;28;20038;-69
2022/11/02 11:10:23;;;;;;;17.02;3.50;;;15.20;99.90;;;;;;5072293;28;20469;-69
2022/11/02 11:12:49;;;;;;;22.95;3.97;;;14.90;99.90;;;;;;5072690;28;20043;-69
2022/11/02 11:15:22;;;;;;;18.55;4.15;;;15.70;99.90;;;;;;5059960;28;20032;-69
2022/11/02 11:17:49;;;;;;;19.08;3.72;;;16.50;99.90;;;;;;5053150;28;20040;-69
2022/11/02 11:20:34;;;;;;;26.80;5.15;;;16.90;99.90;;;;;;5058038;28;20032;-69
2022/11/02 11:23:27;;;;;;;19.20;3.97;;;17.20;99.90;;;;;;5052036;28;20388;-69
2022/11/02 11:26:02;;;;;;;;;;;16.90;99.90;;;;;;5065020;28;20041;-69
2022/11/02 11:28:41;;;;;;;20.15;3.83;;;17.40;99.90;;;;;;5064809;28;19908;-69
2022/11/02 11:31:11;;;;;;;22.25;4.65;;;17.20;99.90;;;;;;5048653;28;20033;-69
2022/11/02 11:33:44;;;;;;;20.60;3.85;;;17.60;99.90;;;;;;5053665;28;20491;-69
2022/11/02 11:36:18;;;;;;;18.02;4.28;;;18.10;99.90;;;;;;5056313;28;20025;-69
2022/11/02 11:38:48;;;;;;;17.80;3.92;;;18.00;99.90;;;;;;5065233;28;20062;-68
2022/11/02 11:41:15;;;;;;;23.67;4.43;;;17.30;99.90;;;;;;5056392;28;20382;-68
2022/11/02 11:43:41;;;;;;;12.50;2.90;;;17.50;99.90;;;;;;5055693;28;20021;-68
2022/11/02 11:46:10;;;;;;;20.58;3.83;;;17.10;99.90;;;;;;5064366;28;20066;-69
2022/11/02 11:48:44;;;;;;;17.58;4.22;;;17.50;99.90;;;;;;5067916;28;20025;-69
2022/11/02 11:51:44;;;;;;;17.17;3.65;;;17.80;99.90;;;;;;5060434;28;20025;-69
2022/11/02 11:54:28;;;;;;;22.15;4.03;;;17.70;99.90;;;;;;5049360;28;20043;-69
2022/11/02 11:56:59;;;;;;;24.42;3.72;;;17.70;99.90;;;;;;5051680;28;20029;-68
2022/11/02 11:59:44;;;;;;;16.07;2.97;;;17.90;99.90;;;;;;5041552;28;20037;-68
2022/11/02 12:02:28;;;;;;;17.52;3.17;;;17.00;99.90;;;;;;5045786;28;20028;-68
2022/11/02 12:05:16;;;;;;;20.02;3.72;;;17.80;99.90;;;;;;5072064;28;20029;-68
2022/11/02 12:08:00;;;;;;;19.63;3.85;;;18.70;99.90;;;;;;5070532;28;20031;-68
2022/11/02 12:11:01;;;;;;;16.63;3.90;;;18.40;99.90;;;;;;5071723;28;20029;-68
2022/11/02 12:13:54;;;;;;;16.20;3.97;;;18.30;99.90;;;;;;5071953;28;20028;-68
2022/11/02 12:16:44;;;;;;;25.45;5.45;;;17.90;99.90;;;;;;5071833;28;20043;-68
2022/11/02 12:19:48;;;;;;;21.38;3.90;;;17.10;99.90;;;;;;5074544;28;20071;-68
2022/11/02 12:22:39;;;;;;;22.80;4.50;;;17.60;99.90;;;;;;5055691;28;20032;-68
2022/11/02 12:25:36;;;;;;;16.73;3.83;;;17.50;99.90;;;;;;5053257;28;20029;-68
2022/11/02 12:28:27;;;;;;;24.30;5.05;;;17.50;99.90;;;;;;5048776;28;20025;-68
2022/11/02 12:31:12;;;;;;;22.50;2.78;;;17.10;99.90;;;;;;5041595;28;20029;-69
2022/11/02 12:33:55;;;;;;;19.98;4.00;;;16.70;99.90;;;;;;5050239;28;20346;-68
2022/11/02 12:36:39;;;;;;;20.27;3.33;;;17.30;99.90;;;;;;5062057;28;20033;-68
2022/11/02 12:39:19;;;;;;;18.70;4.20;;;17.80;99.90;;;;;;5055067;28;20033;-68
2022/11/02 12:41:50;;;;;;;23.35;3.67;;;17.70;99.90;;;;;;5055140;28;20041;-68
2022/11/02 12:45:04;;;;;;;15.60;4.18;;;17.60;99.90;;;;;;5054193;28;20029;-69
2022/11/02 12:47:38;;;;;;;20.75;4.30;;;18.10;99.90;;;;;;5053051;28;20555;-69
2022/11/02 12:50:07;;;;;;;17.00;3.25;;;17.60;99.90;;;;;;5055016;28;20060;-68
2022/11/02 12:52:58;;;;;;;25.77;3.67;;;17.40;99.90;;;;;;5055167;28;20377;-69
2022/11/02 12:55:29;;;;;;;21.13;3.92;;;18.10;99.90;;;;;;5046909;28;20108;-69
2022/11/02 12:58:12;;;;;;;18.80;3.10;;;18.60;99.90;;;;;;5054939;28;20112;-69
2022/11/02 13:00:41;;;;;;;17.67;3.25;;;17.70;99.90;;;;;;5056511;28;20041;-68
2022/11/02 13:03:29;;;;;;;20.02;3.58;;;17.90;99.90;;;;;;5074961;28;20020;-69
2022/11/02 13:06:05;;;;;;;17.70;3.20;;;18.10;99.90;;;;;;5074830;28;20537;-69
2022/11/02 13:08:55;;;;;;;25.13;3.45;;;17.90;99.90;;;;;;5074862;28;20033;-69
2022/11/02 13:11:27;;;;;;;14.90;3.10;;;18.20;99.90;;;;;;5073444;28;20043;-69
2022/11/02 13:13:56;;;;;;;22.67;3.38;;;18.30;99.90;;;;;;5074914;28;20083;-69
2022/11/02 13:16:42;;;;;;;16.95;3.38;;;18.50;99.90;;;;;;5074752;28;20021;-68
2022/11/02 13:19:50;;;;;;;12.25;3.10;;;18.50;99.90;;;;;;5074694;28;20041;-68
2022/11/02 13:22:18;;;;;;;16.27;2.72;;;18.80;99.90;;;;;;5074533;28;20033;-69